createdAt,value
2017-10-03T00:01:35.230Z,17.10
2017-10-03T00:06:37.937Z,17.09
2017-10-03T00:11:40.539Z,17.04
2017-10-03T00:16:43.150Z,17.00
2017-10-03T00:21:45.797Z,16.85
2017-10-03T00:26:48.419Z,16.80
2017-10-03T00:31:51.064Z,16.16
2017-10-03T00:36:54.068Z,15.94
2017-10-03T00:41:56.742Z,15.80
2017-10-03T00:46:59.085Z,15.77
2017-10-03T00:52:01.917Z,15.72
2017-10-03T00:57:03.975Z,15.67
2017-10-03T01:02:06.005Z,15.66
2017-10-03T01:07:08.653Z,15.60
2017-10-03T01:12:11.977Z,15.70
2017-10-03T01:17:13.999Z,15.77
2017-10-03T01:22:16.518Z,15.65
2017-10-03T01:27:19.045Z,15.46
2017-10-03T01:32:20.982Z,15.41
2017-10-03T01:37:22.928Z,15.43
2017-10-03T01:42:24.844Z,15.47
2017-10-03T01:47:28.434Z,15.45
2017-10-03T01:52:31.089Z,15.47
2017-10-03T01:57:34.084Z,15.26
2017-10-03T02:02:36.731Z,15.13
2017-10-03T02:07:40.101Z,15.12
2017-10-03T02:12:43.253Z,15.09
2017-10-03T02:17:46.524Z,15.05
2017-10-03T02:22:49.260Z,15.12
2017-10-03T02:27:51.938Z,15.01
2017-10-03T02:32:54.592Z,14.84
2017-10-03T02:37:57.170Z,14.78
2017-10-03T02:42:59.393Z,14.70
2017-10-03T02:48:02.266Z,14.66
2017-10-03T02:53:04.280Z,14.76
2017-10-03T02:58:07.640Z,14.68
2017-10-03T03:03:10.015Z,14.58
2017-10-03T03:08:12.424Z,14.61
2017-10-03T03:13:14.400Z,14.68
2017-10-03T03:18:16.726Z,14.70
2017-10-03T03:23:19.422Z,14.78
2017-10-03T03:28:22.110Z,14.62
2017-10-03T03:33:24.902Z,14.59
2017-10-03T03:38:27.590Z,14.60
2017-10-03T03:43:29.946Z,14.49
2017-10-03T03:48:32.599Z,14.45
2017-10-03T03:53:35.246Z,14.42
2017-10-03T03:58:37.792Z,14.38
2017-10-03T04:03:40.399Z,14.40
2017-10-03T04:08:42.863Z,14.30
2017-10-03T04:13:48.928Z,14.39
2017-10-03T04:18:55.329Z,14.31
2017-10-03T04:23:58.213Z,14.34
2017-10-03T04:29:00.813Z,14.29
2017-10-03T04:34:03.594Z,14.21
2017-10-03T04:39:06.921Z,14.25
2017-10-03T04:44:09.225Z,14.22
2017-10-03T04:49:16.104Z,14.20
2017-10-03T04:54:20.702Z,14.22
2017-10-03T04:59:27.794Z,14.30
2017-10-03T05:04:30.703Z,14.35
2017-10-03T05:09:32.678Z,14.29
2017-10-03T05:14:35.378Z,14.26
2017-10-03T05:19:38.222Z,14.32
2017-10-03T05:24:41.244Z,14.31
2017-10-03T05:29:43.892Z,14.40
2017-10-03T05:34:46.192Z,14.55
2017-10-03T05:39:48.311Z,14.51
2017-10-03T05:44:50.889Z,14.38
2017-10-03T05:49:52.843Z,14.56
2017-10-03T05:54:54.795Z,14.61
2017-10-03T05:59:56.765Z,14.76
2017-10-03T06:04:59.447Z,14.87
2017-10-03T06:10:01.441Z,14.89
2017-10-03T06:15:03.468Z,14.88
2017-10-03T06:20:05.416Z,14.99
2017-10-03T06:25:07.376Z,15.04
2017-10-03T06:30:10.124Z,15.06
2017-10-03T06:35:14.074Z,15.09
2017-10-03T06:40:17.462Z,15.17
2017-10-03T06:45:20.072Z,15.20
2017-10-03T06:50:22.887Z,15.21
2017-10-03T06:55:26.217Z,15.30
2017-10-03T07:00:28.759Z,15.23
2017-10-03T07:05:31.227Z,15.23
2017-10-03T07:10:33.770Z,15.24
2017-10-03T07:15:36.662Z,15.26
2017-10-03T07:20:39.224Z,15.24
2017-10-03T07:25:41.779Z,15.39
2017-10-03T07:30:44.180Z,15.57
2017-10-03T07:35:46.734Z,15.58
2017-10-03T07:40:49.272Z,15.75
2017-10-03T07:45:51.713Z,15.96
2017-10-03T07:50:54.337Z,16.08
2017-10-03T07:55:56.543Z,16.18
2017-10-03T08:00:59.147Z,16.33
2017-10-03T08:06:02.613Z,16.35
2017-10-03T08:11:05.058Z,16.27
2017-10-03T08:16:07.567Z,16.26
2017-10-03T08:21:10.640Z,16.29
2017-10-03T08:26:13.982Z,16.39
2017-10-03T08:31:16.879Z,16.89
2017-10-03T08:36:19.747Z,17.36
2017-10-03T08:41:21.997Z,17.72
2017-10-03T08:46:24.125Z,17.83
2017-10-03T08:51:26.286Z,18.01
2017-10-03T08:56:28.955Z,17.99
2017-10-03T09:01:31.761Z,17.64
2017-10-03T09:06:34.394Z,17.86
2017-10-03T09:11:37.832Z,17.91
2017-10-03T09:16:40.522Z,17.89
2017-10-03T09:21:43.041Z,17.89
2017-10-03T09:26:45.653Z,18.02
2017-10-03T09:31:47.803Z,18.35
2017-10-03T09:36:50.078Z,18.55
2017-10-03T09:41:53.563Z,18.82
2017-10-03T09:46:56.818Z,18.91
2017-10-03T09:51:59.121Z,18.71
2017-10-03T09:57:01.994Z,18.88
2017-10-03T10:02:04.694Z,19.03
2017-10-03T10:07:07.347Z,18.76
2017-10-03T10:12:09.940Z,18.98
2017-10-03T10:17:12.244Z,19.23
2017-10-03T10:22:15.172Z,19.26
2017-10-03T10:27:18.520Z,19.41
2017-10-03T10:32:20.973Z,19.48
2017-10-03T10:37:23.339Z,19.54
2017-10-03T10:42:25.372Z,19.68
2017-10-03T10:47:28.050Z,19.62
2017-10-03T10:52:30.700Z,19.70
2017-10-03T10:57:33.014Z,19.86
2017-10-03T11:02:38.114Z,19.49
2017-10-03T11:07:40.947Z,19.07
2017-10-03T11:12:44.107Z,18.88
2017-10-03T11:17:49.233Z,18.94
2017-10-03T11:23:10.081Z,19.11
2017-10-03T11:28:12.743Z,19.62
2017-10-03T11:33:15.415Z,19.95
2017-10-03T11:38:17.895Z,20.50
2017-10-03T11:43:21.425Z,21.05
2017-10-03T11:48:23.952Z,21.25
2017-10-03T11:53:26.379Z,20.49
2017-10-03T11:58:29.081Z,20.45
2017-10-03T12:03:31.898Z,20.36
2017-10-03T12:08:36.235Z,20.30
2017-10-03T12:13:38.145Z,20.42
2017-10-03T12:18:41.490Z,20.82
2017-10-03T12:23:44.176Z,20.56
2017-10-03T12:28:46.846Z,20.99
2017-10-03T12:33:51.728Z,20.74
2017-10-03T12:38:54.346Z,20.50
2017-10-03T12:43:56.539Z,20.38
2017-10-03T12:48:59.368Z,20.29
2017-10-03T12:54:02.546Z,20.36
2017-10-03T12:59:05.636Z,20.02
2017-10-03T13:04:08.117Z,20.13
2017-10-03T13:09:12.629Z,20.44
2017-10-03T13:14:15.689Z,19.94
2017-10-03T13:19:18.102Z,19.80
2017-10-03T13:24:21.009Z,19.70
2017-10-03T13:29:23.644Z,19.61
2017-10-03T13:34:26.230Z,19.73
2017-10-03T13:39:28.299Z,20.04
2017-10-03T13:44:31.977Z,19.88
2017-10-03T13:49:34.511Z,19.74
2017-10-03T13:54:37.105Z,19.75
2017-10-03T13:59:39.357Z,19.88
2017-10-03T14:04:41.632Z,20.06
2017-10-03T14:09:43.841Z,20.29
2017-10-03T14:14:45.778Z,20.16
2017-10-03T14:19:48.122Z,19.77
2017-10-03T14:24:50.379Z,19.48
2017-10-03T14:29:53.017Z,19.42
2017-10-03T14:34:55.577Z,18.93
2017-10-03T14:39:57.964Z,18.53
2017-10-03T14:45:00.634Z,17.92
2017-10-03T14:50:02.809Z,17.56
2017-10-03T14:55:05.482Z,17.15
2017-10-03T15:00:07.449Z,16.91
2017-10-03T15:05:10.118Z,16.88
2017-10-03T15:10:12.707Z,16.97
2017-10-03T15:15:14.668Z,17.11
2017-10-03T15:20:18.612Z,17.49
2017-10-03T15:25:22.145Z,18.05
2017-10-03T15:30:24.789Z,18.17
2017-10-03T15:35:27.563Z,18.11
2017-10-03T15:40:29.786Z,18.06
2017-10-03T15:45:35.204Z,17.86
2017-10-03T15:50:38.535Z,17.98
2017-10-03T15:55:40.843Z,17.94
2017-10-03T16:00:43.375Z,18.19
2017-10-03T16:05:46.043Z,18.46
2017-10-03T16:10:48.388Z,18.13
2017-10-03T16:15:51.167Z,18.14
2017-10-03T16:20:54.211Z,18.23
2017-10-03T16:25:56.655Z,18.25
2017-10-03T16:30:59.265Z,18.34
2017-10-03T16:36:02.626Z,18.08
2017-10-03T16:41:06.083Z,18.09
2017-10-03T16:46:08.803Z,17.77
2017-10-03T16:51:11.405Z,17.51
2017-10-03T16:56:14.039Z,17.29
2017-10-03T17:01:16.662Z,17.18
2017-10-03T17:06:19.385Z,16.98
2017-10-03T17:11:21.312Z,16.74
2017-10-03T17:16:24.267Z,16.60
2017-10-03T17:21:26.267Z,16.53
2017-10-03T17:26:29.592Z,16.54
2017-10-03T17:31:31.593Z,16.42
2017-10-03T17:36:34.222Z,16.22
2017-10-03T17:41:37.377Z,16.14
2017-10-03T17:46:40.125Z,16.06
2017-10-03T17:51:43.695Z,15.96
2017-10-03T17:56:46.907Z,15.78
2017-10-03T18:01:50.310Z,15.65
2017-10-03T18:06:54.928Z,15.58
2017-10-03T18:11:56.940Z,15.42
2017-10-03T18:17:00.578Z,15.49
2017-10-03T18:22:03.705Z,15.45
2017-10-03T18:27:06.976Z,15.38
2017-10-03T18:32:09.021Z,15.33
2017-10-03T18:37:10.980Z,15.38
2017-10-03T18:42:14.587Z,15.21
2017-10-03T18:47:16.530Z,15.30
2017-10-03T18:52:19.290Z,15.28
2017-10-03T18:57:22.050Z,15.20
2017-10-03T19:02:24.052Z,15.16
2017-10-03T19:07:26.100Z,15.07
2017-10-03T19:12:28.115Z,15.05
2017-10-03T19:17:30.060Z,15.00
2017-10-03T19:22:32.763Z,14.97
2017-10-03T19:27:34.900Z,14.97
2017-10-03T19:32:36.953Z,15.02
2017-10-03T19:37:39.004Z,14.95
2017-10-03T19:42:41.050Z,14.94
2017-10-03T19:47:43.939Z,14.92
2017-10-03T19:52:45.931Z,14.84
2017-10-03T19:57:49.646Z,14.84
2017-10-03T20:02:53.185Z,14.81
2017-10-03T20:07:55.245Z,14.77
2017-10-03T20:12:57.222Z,14.83
2017-10-03T20:17:59.239Z,14.77
2017-10-03T20:23:01.167Z,14.70
2017-10-03T20:28:04.047Z,14.74
2017-10-03T20:33:06.022Z,14.78
2017-10-03T20:38:08.747Z,14.76
2017-10-03T20:43:10.700Z,14.69
2017-10-03T20:48:12.825Z,14.68
2017-10-03T20:53:15.375Z,14.56
2017-10-03T20:58:17.723Z,14.60
2017-10-03T21:03:19.973Z,14.50
2017-10-03T21:08:22.537Z,14.40
2017-10-03T21:13:24.858Z,14.50
2017-10-03T21:18:27.141Z,14.52
2017-10-03T21:23:30.159Z,14.55
2017-10-03T21:28:32.091Z,14.40
2017-10-03T21:33:34.182Z,14.47
2017-10-03T21:38:36.179Z,14.47
2017-10-03T21:43:38.175Z,14.46
2017-10-03T21:48:40.196Z,14.39
2017-10-03T21:53:42.096Z,14.13
2017-10-03T21:58:44.014Z,14.37
2017-10-03T22:03:45.910Z,14.29
2017-10-03T22:08:47.843Z,14.35
2017-10-03T22:13:49.777Z,14.33
2017-10-03T22:18:52.490Z,14.39
2017-10-03T22:23:54.462Z,14.44
2017-10-03T22:28:56.384Z,14.47
2017-10-03T22:33:58.915Z,14.46
2017-10-03T22:39:01.459Z,14.46
2017-10-03T22:44:03.987Z,14.52
2017-10-03T22:49:11.108Z,14.45
2017-10-03T22:54:13.009Z,14.46
2017-10-03T22:59:14.967Z,14.45
2017-10-03T23:04:16.972Z,14.47
2017-10-03T23:09:18.882Z,14.48
2017-10-03T23:14:21.565Z,14.61
2017-10-03T23:19:23.609Z,14.65
2017-10-03T23:24:25.526Z,14.70
2017-10-03T23:29:28.287Z,14.76
2017-10-03T23:34:31.014Z,14.77
2017-10-03T23:39:32.952Z,14.67
2017-10-03T23:44:34.953Z,14.75
2017-10-03T23:49:37.722Z,14.83
2017-10-03T23:54:40.355Z,14.82
2017-10-03T23:59:42.336Z,14.93
